Time;durP1;ratioP1;P1;durP2;ratioP2;P2;SDS_P1;SDS_P2;PMS_P1;PMS_P2;Temp;Humidity;BMP_temperature;BMP_pressure;BME280_temperature;BME280_humidity;BME280_pressure;Samples;Min_cycle;Max_cycle;Signal;HPM_P1;HPM_P2
2023/01/02 00:02:19;;;;;;;8.52;4.05;;;;;;;-142.75;100.00;76552.56;5043783;28;20506;-65
2023/01/02 00:04:44;;;;;;;11.48;4.60;;;;;;;-142.75;100.00;76548.63;5026182;28;20060;-66
2023/01/02 00:07:10;;;;;;;14.52;4.30;;;;;;;-142.75;100.00;76538.78;5043155;28;20020;-67
2023/01/02 00:09:35;;;;;;;12.98;4.68;;;;;;;-142.75;100.00;76544.69;5043810;28;20025;-68
2023/01/02 00:12:00;;;;;;;11.07;3.88;;;;;;;-142.75;100.00;76536.84;5043823;28;20166;-69
2023/01/02 00:14:26;;;;;;;16.52;4.80;;;;;;;-142.75;100.00;76540.75;5043699;28;20027;-68
2023/01/02 00:16:51;;;;;;;13.43;5.22;;;;;;;-142.75;100.00;76528.97;5043447;28;20395;-68
2023/01/02 00:19:16;;;;;;;11.52;4.50;;;;;;;-142.75;100.00;76532.88;5043563;28;20043;-67
2023/01/02 00:21:41;;;;;;;21.08;5.03;;;;;;;-142.75;100.00;76519.13;5043652;28;20025;-67
2023/01/02 00:24:07;;;;;;;10.10;4.95;;;;;;;-142.75;100.00;76507.31;5025626;28;20035;-67
2023/01/02 00:26:32;;;;;;;11.73;4.18;;;;;;;-142.75;100.00;76511.25;5043324;28;20079;-67
2023/01/02 00:28:59;;;;;;;17.55;4.53;;;;;;;-142.75;100.00;76515.19;5024747;28;20051;-66
2023/01/02 00:31:25;;;;;;;9.80;4.63;;;;;;;-142.75;100.00;76523.06;5043509;28;20467;-68
2023/01/02 00:33:50;;;;;;;10.48;4.95;;;;;;;-142.75;100.00;76519.13;5025312;28;20017;-68
2023/01/02 00:36:15;;;;;;;13.43;4.60;;;;;;;-142.75;100.00;76511.25;5043555;28;20021;-66
2023/01/02 00:38:41;;;;;;;12.35;4.90;;;;;;;-142.75;100.00;76509.28;5042515;28;20025;-67
2023/01/02 00:41:06;;;;;;;11.85;4.70;;;;;;;-142.75;100.00;76530.91;5025270;28;20070;-68
2023/01/02 00:43:32;;;;;;;10.43;4.43;;;;;;;-142.75;100.00;76527.00;5043015;28;20067;-67
2023/01/02 00:45:57;;;;;;;14.55;5.32;;;;;;;-142.75;100.00;76530.91;5043201;28;20100;-65
2023/01/02 00:48:22;;;;;;;8.93;4.70;;;;;;;-142.75;100.00;76515.19;5042442;28;20394;-68
2023/01/02 00:50:48;;;;;;;11.48;4.45;;;;;;;-142.75;100.00;76517.16;5025815;28;20056;-68
2023/01/02 00:53:14;;;;;;;11.30;4.50;;;;;;;-142.75;100.00;76511.25;5043270;28;20021;-65
2023/01/02 00:55:42;;;;;;;10.68;4.47;;;;;;;-142.75;100.00;76521.09;5043113;28;20111;-67
2023/01/02 00:58:07;;;;;;;13.52;5.00;;;;;;;-142.75;100.00;76515.19;5024635;28;20028;-67
2023/01/02 01:00:32;;;;;;;14.90;4.65;;;;;;;-142.75;100.00;76536.84;5042830;28;20021;-65
2023/01/02 01:02:58;;;;;;;17.95;4.68;;;;;;;-142.75;100.00;76527.00;5023972;28;20540;-68
2023/01/02 01:05:25;;;;;;;13.10;4.97;;;;;;;-142.75;100.00;76517.16;5042383;28;20086;-69
2023/01/02 01:07:50;;;;;;;11.48;5.13;;;;;;;-142.75;100.00;76511.25;5024484;28;20033;-66
2023/01/02 01:10:16;;;;;;;12.18;4.00;;;;;;;-142.75;100.00;76497.47;5042780;28;20021;-69
2023/01/02 01:12:41;;;;;;;10.15;4.65;;;;;;;-142.75;100.00;76491.56;5042758;28;20017;-68
2023/01/02 01:15:07;;;;;;;12.18;5.18;;;;;;;-142.75;100.00;76503.38;5024775;28;20025;-68
2023/01/02 01:17:32;;;;;;;8.38;4.32;;;;;;;-142.75;100.00;76495.50;5041825;28;20111;-66
2023/01/02 01:19:58;;;;;;;10.45;4.80;;;;;;;-142.75;100.00;76485.66;5042773;28;20047;-66
2023/01/02 01:22:23;;;;;;;10.95;4.88;;;;;;;-142.75;100.00;76487.63;5042334;28;20029;-67
2023/01/02 01:24:49;;;;;;;12.55;4.90;;;;;;;-142.75;100.00;76491.56;5042954;28;20103;-66
2023/01/02 01:27:14;;;;;;;12.10;4.65;;;;;;;-142.75;100.00;76487.63;5041668;28;20035;-64
2023/01/02 01:29:40;;;;;;;8.52;3.90;;;;;;;-142.75;100.00;76481.72;5024413;28;20967;-67
2023/01/02 01:32:08;;;;;;;12.75;4.53;;;;;;;-142.75;100.00;76479.75;5042204;28;20021;-66
2023/01/02 01:34:33;;;;;;;10.30;4.80;;;;;;;-142.75;100.00;76481.72;5042485;28;20032;-67
2023/01/02 01:36:59;;;;;;;10.52;4.30;;;;;;;-142.75;100.00;76491.56;5041513;28;20050;-67
2023/01/02 01:39:24;;;;;;;11.68;3.95;;;;;;;-142.75;100.00;76503.38;5042227;28;20021;-68
2023/01/02 01:41:49;;;;;;;10.63;4.25;;;;;;;-142.75;100.00;76497.47;5042422;28;20445;-66
2023/01/02 01:44:34;;;;;;;;;;;;;;;-142.75;100.00;76483.69;5042583;28;20024;-66
2023/01/02 01:47:01;;;;;;;11.27;3.63;;;;;;;-142.75;100.00;76489.59;5040045;28;19931;-67
2023/01/02 01:49:28;;;;;;;9.50;3.95;;;;;;;-142.75;100.00;76493.53;5042252;28;20061;-66
2023/01/02 01:52:02;;;;;;;11.20;3.97;;;;;;;-142.75;100.00;76493.53;5042265;28;20132;-68
2023/01/02 01:54:32;;;;;;;10.38;3.97;;;;;;;-142.75;100.00;76483.69;5041985;28;20027;-68
2023/01/02 01:57:05;;;;;;;9.30;3.75;;;;;;;-142.75;100.00;76489.59;5041108;28;20799;-67
2023/01/02 01:59:32;;;;;;;11.85;4.45;;;;;;;-142.75;100.00;76483.69;5042125;28;20542;-67
2023/01/02 02:01:58;;;;;;;8.65;3.78;;;;;;;-142.75;100.00;76495.50;5041634;28;20091;-66
2023/01/02 02:04:25;;;;;;;10.10;3.85;;;;;;;-142.75;100.00;76503.38;5023678;28;20029;-67
2023/01/02 02:06:51;;;;;;;6.88;3.40;;;;;;;-142.75;100.00;76519.13;5023251;28;20031;-68
2023/01/02 02:09:46;;;;;;;7.32;3.45;;;;;;;-142.75;100.00;76519.13;5023754;28;20021;-67
2023/01/02 02:12:13;;;;;;;9.00;4.28;;;;;;;-142.75;100.00;76505.34;5039304;28;20036;-68
2023/01/02 02:14:38;;;;;;;7.68;3.67;;;;;;;-142.75;100.00;76507.31;5041299;28;20105;-68
2023/01/02 02:17:17;;;;;;;8.82;4.07;;;;;;;-142.75;100.00;76485.66;5040711;28;20085;-66
2023/01/02 02:19:48;;;;;;;12.20;4.28;;;;;;;-142.75;100.00;76497.47;5041513;28;20029;-65
2023/01/02 02:22:34;;;;;;;11.30;4.10;;;;;;;-142.75;100.00;76503.38;5041435;28;20063;-67
2023/01/02 02:25:18;;;;;;;8.02;3.28;;;;;;;-142.75;100.00;76501.41;5041350;28;20025;-66
2023/01/02 02:28:09;;;;;;;10.45;4.35;;;;;;;-142.75;100.00;76495.50;5040513;28;20474;-68
2023/01/02 02:30:39;;;;;;;10.38;3.72;;;;;;;-142.75;100.00;76503.38;5023059;28;20402;-68
2023/01/02 02:33:19;;;;;;;11.07;4.47;;;;;;;-142.75;100.00;76507.31;5023200;28;20519;-68
2023/01/02 02:36:13;;;;;;;11.90;4.05;;;;;;;-142.75;100.00;76491.56;5041275;28;20082;-67
2023/01/02 02:39:13;;;;;;;9.18;4.13;;;;;;;-142.75;100.00;76483.69;5022709;28;20372;-68
2023/01/02 02:42:17;;;;;;;10.70;3.55;;;;;;;-142.75;100.00;76471.88;5000104;28;20478;-66
2023/01/02 02:45:05;;;;;;;12.68;4.15;;;;;;;-142.75;100.00;76483.69;5037018;28;20064;-66
2023/01/02 02:47:33;;;;;;;12.13;3.90;;;;;;;-142.75;100.00;76471.88;5022460;28;20029;-68
2023/01/02 02:50:11;;;;;;;11.43;4.88;;;;;;;-142.75;100.00;76477.78;5023017;28;20052;-69
2023/01/02 02:53:02;;;;;;;12.25;3.78;;;;;;;-142.75;100.00;76467.94;5039584;28;20568;-67
2023/01/02 02:55:34;;;;;;;11.48;4.35;;;;;;;-142.75;100.00;76465.97;5040837;28;20033;-68
2023/01/02 02:58:00;;;;;;;9.85;3.90;;;;;;;-142.75;100.00;76464.00;5040497;28;20103;-67
2023/01/02 03:00:26;;;;;;;12.63;4.68;;;;;;;-142.75;100.00;76464.00;5040797;28;20398;-68
2023/01/02 03:02:51;;;;;;;8.07;4.05;;;;;;;-142.75;100.00;76448.25;5041063;28;20025;-68
2023/01/02 03:05:22;;;;;;;10.15;3.55;;;;;;;-142.75;100.00;76444.31;5039556;28;20148;-67
2023/01/02 03:08:00;;;;;;;10.23;3.88;;;;;;;-142.75;100.00;76436.44;5040047;28;20024;-67
2023/01/02 03:10:41;;;;;;;13.20;4.20;;;;;;;-142.75;100.00;76434.47;5040959;28;20024;-67
2023/01/02 03:13:09;;;;;;;14.73;4.32;;;;;;;-142.75;100.00;76424.63;5040738;28;20031;-71
2023/01/02 03:15:57;;;;;;;13.32;4.13;;;;;;;-142.75;100.00;76442.34;5040672;28;20121;-67
2023/01/02 03:18:34;;;;;;;15.32;3.63;;;;;;;-142.75;100.00;76434.47;5039681;28;20355;-67
2023/01/02 03:21:08;;;;;;;11.35;3.22;;;;;;;-142.75;100.00;76448.25;5040616;28;20378;-67
2023/01/02 03:23:41;;;;;;;10.07;3.95;;;;;;;-142.75;100.00;76440.38;5022361;28;20781;-69
2023/01/02 03:26:06;;;;;;;7.60;3.35;;;;;;;-142.75;100.00;76444.31;5040689;28;20036;-66
2023/01/02 03:28:36;;;;;;;10.65;3.42;;;;;;;-142.75;100.00;76432.50;5043770;28;20029;-67
2023/01/02 03:31:03;;;;;;;9.43;2.95;;;;;;;-142.75;100.00;76426.59;5044708;28;20044;-67
2023/01/02 03:33:38;;;;;;;14.70;3.45;;;;;;;-142.75;100.00;76418.72;5044441;28;20028;-67
2023/01/02 03:36:13;;;;;;;8.43;3.20;;;;;;;-142.75;100.00;76428.56;5044584;28;20028;-66
2023/01/02 03:38:45;;;;;;;13.25;3.63;;;;;;;-142.75;100.00;76434.47;5043630;28;20033;-66
2023/01/02 03:41:29;;;;;;;14.77;3.95;;;;;;;-142.75;100.00;76440.38;5026434;28;20075;-66
2023/01/02 03:43:56;;;;;;;9.20;2.92;;;;;;;-142.75;100.00;76440.38;5044408;28;20024;-68
2023/01/02 03:46:32;;;;;;;11.73;3.40;;;;;;;-142.75;100.00;76446.28;5044487;28;20654;-67
2023/01/02 03:49:25;;;;;;;9.85;3.42;;;;;;;-142.75;100.00;76440.38;5043780;28;20393;-66
2023/01/02 03:51:51;;;;;;;10.90;3.63;;;;;;;-142.75;100.00;76448.25;5044384;28;20040;-65
2023/01/02 03:54:17;;;;;;;8.63;3.13;;;;;;;-142.75;100.00;76467.94;5044068;28;20465;-67
2023/01/02 03:57:02;;;;;;;8.85;3.25;;;;;;;-142.75;100.00;76450.22;5025738;28;20025;-66
2023/01/02 03:59:49;;;;;;;7.97;3.58;;;;;;;-142.75;100.00;76448.25;5044218;28;20033;-67
2023/01/02 04:02:25;;;;;;;12.82;3.20;;;;;;;-142.75;100.00;76444.31;5043637;28;20036;-67
2023/01/02 04:04:57;;;;;;;8.45;3.20;;;;;;;-142.75;100.00;76450.22;5026607;28;20576;-67
2023/01/02 04:07:41;;;;;;;9.23;3.10;;;;;;;-142.75;100.00;76452.19;5025025;28;20047;-67
2023/01/02 04:10:09;;;;;;;11.02;3.13;;;;;;;-142.75;100.00;76456.13;5044065;28;20028;-66
2023/01/02 04:12:38;;;;;;;7.55;3.80;;;;;;;-142.75;100.00;76467.94;5043594;28;20028;-67
2023/01/02 04:15:12;;;;;;;12.63;3.58;;;;;;;-142.75;100.00;76477.78;5043892;28;20478;-67
2023/01/02 04:17:54;;;;;;;13.68;4.45;;;;;;;-142.75;100.00;76467.94;5042875;28;20056;-69
2023/01/02 04:20:26;;;;;;;8.50;3.05;;;;;;;-142.75;100.00;76471.88;5025930;28;20044;-66
2023/01/02 04:23:01;;;;;;;11.55;3.25;;;;;;;-142.75;100.00;76473.84;5025781;28;20736;-66
2023/01/02 04:25:36;;;;;;;6.70;3.60;;;;;;;-142.75;100.00;76491.56;5043465;28;20021;-66
2023/01/02 04:28:08;;;;;;;9.13;4.40;;;;;;;-142.75;100.00;76491.56;5042749;28;20091;-66
2023/01/02 04:30:41;;;;;;;13.68;3.65;;;;;;;-142.75;100.00;76477.78;5043476;28;20031;-67
2023/01/02 04:33:09;;;;;;;8.40;3.22;;;;;;;-142.75;100.00;76481.72;5025313;28;20017;-66
2023/01/02 04:35:34;;;;;;;14.50;4.25;;;;;;;-142.75;100.00;76491.56;5043371;28;20458;-68
2023/01/02 04:38:08;;;;;;;9.68;4.00;;;;;;;-142.75;100.00;76481.72;5042493;28;20095;-66
2023/01/02 04:40:36;;;;;;;8.50;3.58;;;;;;;-142.75;100.00;76485.66;5043187;28;20028;-66
2023/01/02 04:43:05;;;;;;;5.78;3.50;;;;;;;-142.75;100.00;76483.69;5043090;28;20021;-67
2023/01/02 04:45:31;;;;;;;9.93;3.83;;;;;;;-142.75;100.00;76485.66;5043011;28;20033;-68
2023/01/02 04:47:56;;;;;;;9.70;4.18;;;;;;;-142.75;100.00;76499.44;5042318;28;20536;-65
2023/01/02 04:50:21;;;;;;;12.07;4.00;;;;;;;-142.75;100.00;76523.06;5025233;28;20425;-64
2023/01/02 04:52:47;;;;;;;;;;;;;;;-142.75;100.00;76530.91;5026023;28;20036;-67
2023/01/02 04:55:12;;;;;;;6.55;3.67;;;;;;;-142.75;100.00;76584.06;5043142;28;19920;-66
2023/01/02 04:57:37;;;;;;;3.75;2.38;;;;;;;-142.75;100.00;76621.47;5042446;28;20037;-66
2023/01/02 05:00:04;;;;;;;3.75;1.90;;;;;;;-142.75;100.00;76664.78;5043110;28;20695;-66
2023/01/02 05:02:34;;;;;;;2.90;1.65;;;;;;;-142.75;100.00;76680.53;5042185;28;20482;-66
2023/01/02 05:05:00;;;;;;;2.53;1.20;;;;;;;-142.75;100.00;76706.13;5043003;28;20032;-66
2023/01/02 05:07:25;;;;;;;1.60;0.88;;;;;;;-142.75;100.00;76775.03;5024181;28;20466;-67
2023/01/02 05:09:50;;;;;;;;;;;;;;;-142.75;100.00;76778.97;5043740;28;20058;-65
2023/01/02 05:12:15;;;;;;;1.58;0.60;;;;;;;-142.75;100.00;76794.69;5042844;28;19913;-66
2023/01/02 05:14:40;;;;;;;;;;;;;;;-142.75;100.00;76784.88;5043189;28;20021;-70
2023/01/02 05:17:06;;;;;;;6.70;1.20;;;;;;;-142.75;100.00;76796.69;5041917;28;20709;-68
2023/01/02 05:19:31;;;;;;;;;;;;;;;-142.75;100.00;76788.81;5025335;28;20090;-68
2023/01/02 05:24:40;;;;;;;2.28;0.98;;;;;;;-142.75;100.00;76806.50;5042400;28;20831;-64
2023/01/02 05:27:05;;;;;;;4.05;0.90;;;;;;;-142.75;100.00;76834.06;5023884;28;20020;-66
2023/01/02 05:29:30;;;;;;;3.80;1.10;;;;;;;-142.75;100.00;76861.63;5041967;28;20016;-66
2023/01/02 05:31:56;;;;;;;2.50;1.02;;;;;;;-142.75;100.00;76857.69;5042177;28;20040;-63
2023/01/02 05:34:21;;;;;;;2.13;1.13;;;;;;;-142.75;100.00;76863.59;5024499;28;20013;-64
2023/01/02 05:36:46;;;;;;;2.88;1.48;;;;;;;-142.75;100.00;76881.31;5041870;28;20378;-66
2023/01/02 05:39:13;;;;;;;3.30;1.52;;;;;;;-142.75;100.00;76912.81;5042049;28;20522;-66
2023/01/02 05:41:38;;;;;;;3.03;1.60;;;;;;;-142.75;100.00;76906.91;5042040;28;20025;-66
2023/01/02 05:44:07;;;;;;;3.53;2.15;;;;;;;-142.75;100.00;76908.88;5042154;28;20102;-67
2023/01/02 05:46:33;;;;;;;3.83;2.30;;;;;;;-142.75;100.00;76920.69;5041563;28;20028;-69
2023/01/02 05:48:58;;;;;;;4.00;2.35;;;;;;;-142.75;100.00;76920.69;5041510;28;20017;-67
2023/01/02 05:51:23;;;;;;;;;;;;;;;-142.75;100.00;76924.63;5042012;28;20425;-67
2023/01/02 05:53:52;;;;;;;5.07;2.75;;;;;;;-142.75;100.00;76910.84;5024368;28;19919;-66
2023/01/02 05:56:17;;;;;;;5.57;2.85;;;;;;;-142.75;100.00;76930.53;5024092;28;20025;-66
2023/01/02 05:58:45;;;;;;;5.55;3.28;;;;;;;-142.75;100.00;76944.31;5023053;28;20079;-66
2023/01/02 06:01:14;;;;;;;8.55;3.10;;;;;;;-142.75;100.00;76950.22;5041701;28;20059;-67
2023/01/02 06:03:47;;;;;;;5.60;3.45;;;;;;;-142.75;100.00;76964.00;5041582;28;20025;-67
2023/01/02 06:06:13;;;;;;;6.85;4.05;;;;;;;-142.75;100.00;76964.00;5041789;28;20032;-67
2023/01/02 06:08:39;;;;;;;7.45;3.65;;;;;;;-142.75;100.00;76962.03;5022974;28;20028;-65
2023/01/02 06:11:05;;;;;;;8.50;4.03;;;;;;;-142.75;100.00;76969.91;5023991;28;20653;-66
2023/01/02 06:13:32;;;;;;;6.13;3.30;;;;;;;-142.75;100.00;76960.06;5041502;28;20471;-67
2023/01/02 06:15:58;;;;;;;5.15;3.78;;;;;;;-142.75;100.00;76973.84;5023885;28;20029;-69
2023/01/02 06:18:25;;;;;;;9.63;4.65;;;;;;;-142.75;100.00;76962.03;5040890;28;20040;-67
2023/01/02 06:20:50;;;;;;;7.85;4.78;;;;;;;-142.75;100.00;76960.06;5024022;28;20300;-67
2023/01/02 06:23:16;;;;;;;6.90;3.63;;;;;;;-142.75;100.00;76983.69;5041118;28;20467;-66
2023/01/02 06:25:41;;;;;;;8.07;4.50;;;;;;;-142.75;100.00;76987.63;5039346;28;20116;-68
2023/01/02 06:28:07;;;;;;;7.70;4.18;;;;;;;-142.75;100.00;76979.75;5039807;28;20823;-66
2023/01/02 06:30:32;;;;;;;6.95;4.07;;;;;;;-142.75;100.00;76987.63;5007160;28;20490;-66
2023/01/02 06:32:58;;;;;;;5.15;3.17;;;;;;;-142.75;100.00;77009.28;5023063;28;20033;-66
2023/01/02 06:35:23;;;;;;;7.07;2.30;;;;;;;-142.75;100.00;77015.19;5041054;28;20139;-65
2023/01/02 06:37:49;;;;;;;5.55;2.15;;;;;;;-142.75;100.00;77028.97;5040769;28;20433;-66
2023/01/02 06:40:14;;;;;;;6.88;2.13;;;;;;;-142.75;100.00;77034.88;5041087;28;20409;-67
2023/01/02 06:42:43;;;;;;;3.35;1.65;;;;;;;-142.75;100.00;77070.31;5040970;28;20027;-67
2023/01/02 06:45:09;;;;;;;4.50;1.63;;;;;;;-142.75;100.00;77054.56;5041135;28;20024;-63
2023/01/02 06:47:34;;;;;;;4.22;1.48;;;;;;;-142.75;100.00;77062.44;5040340;28;20021;-67
2023/01/02 06:50:00;;;;;;;6.93;1.70;;;;;;;-142.75;100.00;77074.25;5041271;28;20140;-66
2023/01/02 06:52:27;;;;;;;4.90;1.38;;;;;;;-142.75;100.00;77090.00;5041003;28;20033;-66
2023/01/02 06:54:52;;;;;;;6.15;1.45;;;;;;;-142.75;100.00;77082.13;5041204;28;20401;-66
2023/01/02 06:57:18;;;;;;;4.75;1.60;;;;;;;-142.75;100.00;77084.09;5040020;28;20025;-67
2023/01/02 06:59:43;;;;;;;7.13;1.35;;;;;;;-142.75;100.00;77082.13;5023248;28;20029;-66
2023/01/02 07:02:10;;;;;;;6.05;1.73;;;;;;;-142.75;100.00;77080.16;5040761;28;20021;-65
2023/01/02 07:04:36;;;;;;;5.90;1.65;;;;;;;-142.75;100.00;77088.03;5039518;28;20031;-67
2023/01/02 07:07:01;;;;;;;7.97;1.80;;;;;;;-142.75;100.00;77078.19;5040100;28;20028;-66
2023/01/02 07:09:26;;;;;;;6.93;1.90;;;;;;;-142.75;100.00;77105.75;5040801;28;20123;-67
2023/01/02 07:11:52;;;;;;;5.38;2.20;;;;;;;-142.75;100.00;77123.47;5040816;28;20439;-66
2023/01/02 07:14:18;;;;;;;4.50;1.88;;;;;;;-142.75;100.00;77125.44;5040765;28;20782;-67
2023/01/02 07:16:43;;;;;;;4.20;1.60;;;;;;;-142.75;100.00;77137.25;5039862;28;20409;-67
2023/01/02 07:19:08;;;;;;;5.00;1.58;;;;;;;-142.75;100.00;77143.16;5021675;28;20045;-65
2023/01/02 07:21:34;;;;;;;3.58;1.83;;;;;;;-142.75;100.00;77137.25;5040775;28;20025;-66
2023/01/02 07:23:59;;;;;;;3.50;1.83;;;;;;;-142.75;100.00;77147.09;5040760;28;20028;-67
2023/01/02 07:26:24;;;;;;;4.93;2.10;;;;;;;-142.75;100.00;77145.13;5040259;28;20017;-66
2023/01/02 07:28:50;;;;;;;3.42;2.03;;;;;;;-142.75;100.00;77149.06;5040074;28;20364;-66
2023/01/02 07:31:17;;;;;;;4.82;2.45;;;;;;;-142.75;100.00;77143.16;5040645;28;20025;-67
2023/01/02 07:33:42;;;;;;;4.75;2.55;;;;;;;-142.75;100.00;77145.13;5028536;22;20037;-67
2023/01/02 07:36:11;;;;;;;6.53;2.60;;;;;;;-142.75;100.00;77168.75;5020500;28;20021;-67
2023/01/02 07:38:38;;;;;;;3.53;1.92;;;;;;;-142.75;100.00;77204.19;5019864;28;20025;-67
2023/01/02 07:41:03;;;;;;;;;;;;;;;-142.75;100.00;77208.13;5020956;28;20079;-67
2023/01/02 07:43:29;;;;;;;6.30;1.63;;;;;;;-142.75;100.00;77196.31;5019018;28;19921;-67
2023/01/02 07:46:00;;;;;;;2.75;1.52;;;;;;;-142.75;100.00;77216.00;5020971;28;20529;-67
2023/01/02 07:48:27;;;;;;;4.30;1.42;;;;;;;-142.75;100.00;77239.63;5002144;28;20079;-67
2023/01/02 07:50:52;;;;;;;3.72;1.30;;;;;;;-142.75;100.00;77249.47;5020846;28;20032;-67
2023/01/02 07:53:17;;;;;;;3.22;1.40;;;;;;;-142.75;100.00;77261.28;5020498;28;20021;-67
2023/01/02 07:55:43;;;;;;;3.78;1.50;;;;;;;-142.75;100.00;77265.22;5020362;28;20022;-67
2023/01/02 07:58:08;;;;;;;4.82;1.70;;;;;;;-142.75;100.00;77279.00;5019772;28;20033;-67
2023/01/02 08:00:33;;;;;;;2.85;1.40;;;;;;;-142.75;100.00;77290.81;5020604;28;20067;-67
2023/01/02 08:02:59;;;;;;;8.32;1.92;;;;;;;-142.75;100.00;77279.00;5020120;28;20760;-67
2023/01/02 08:05:25;;;;;;;6.13;2.65;;;;;;;-142.75;100.00;77306.56;5020359;28;20756;-67
2023/01/02 08:07:50;;;;;;;5.32;2.65;;;;;;;-142.75;100.00;77310.50;5019759;28;20104;-67
2023/01/02 08:10:16;;;;;;;4.15;1.85;;;;;;;-142.75;100.00;77322.31;5020398;28;20121;-67
2023/01/02 08:12:41;;;;;;;8.57;2.25;;;;;;;-142.75;100.00;77306.56;5020781;28;20535;-67
2023/01/02 08:15:07;;;;;;;6.25;1.90;;;;;;;-142.75;100.00;77314.44;5023797;28;20033;-67
2023/01/02 08:17:32;;;;;;;3.63;1.50;;;;;;;-142.75;100.00;77310.50;5023146;28;20056;-67
2023/01/02 08:19:58;;;;;;;4.90;1.40;;;;;;;-142.75;100.00;77314.44;5023733;28;20022;-67
2023/01/02 08:22:23;;;;;;;5.45;1.02;;;;;;;-142.75;100.00;77318.38;5023480;28;20021;-67
2023/01/02 08:24:49;;;;;;;2.78;0.70;;;;;;;-142.75;100.00;77318.38;5024082;28;20033;-67
2023/01/02 08:27:14;;;;;;;4.90;0.60;;;;;;;-142.75;100.00;77330.19;5021737;28;20053;-67
2023/01/02 08:29:40;;;;;;;2.88;0.73;;;;;;;-142.75;100.00;77343.97;5023656;28;20025;-67
2023/01/02 08:32:05;;;;;;;3.95;0.65;;;;;;;-142.75;100.00;77343.97;5023792;28;20057;-67
2023/01/02 08:34:33;;;;;;;1.90;0.68;;;;;;;-142.75;100.00;77355.78;5023388;28;20100;-67
2023/01/02 08:36:58;;;;;;;3.42;0.80;;;;;;;-142.75;100.00;77369.56;5022536;28;20037;-67
2023/01/02 08:39:23;;;;;;;6.35;1.10;;;;;;;-142.75;100.00;77379.41;5023310;28;20087;-67
2023/01/02 08:41:49;;;;;;;3.97;0.75;;;;;;;-142.75;100.00;77389.25;5023671;28;20017;-67
2023/01/02 08:44:15;;;;;;;5.90;1.02;;;;;;;-142.75;100.00;77422.72;5021748;28;20025;-67
2023/01/02 08:46:40;;;;;;;4.80;0.52;;;;;;;-142.75;100.00;77403.03;5017521;28;20421;-67
2023/01/02 08:49:05;;;;;;;4.20;0.70;;;;;;;-142.75;100.00;77393.19;5016394;28;20858;-68
2023/01/02 08:51:31;;;;;;;3.70;0.35;;;;;;;-142.75;100.00;77406.97;5015652;28;20075;-68
2023/01/02 08:53:56;;;;;;;4.85;0.63;;;;;;;-142.75;100.00;77434.53;5014801;28;20127;-67
2023/01/02 08:56:23;;;;;;;3.67;0.40;;;;;;;-142.75;100.00;77420.75;5013668;28;20029;-68
2023/01/02 08:58:50;;;;;;;3.55;0.90;;;;;;;-142.75;100.00;77416.81;5022016;28;20406;-68
2023/01/02 09:01:15;;;;;;;3.55;0.60;;;;;;;-142.75;100.00;77393.19;5003557;28;20885;-67
2023/01/02 09:03:40;;;;;;;2.33;0.70;;;;;;;-142.75;100.00;77414.84;5019496;28;20099;-68
2023/01/02 09:06:05;;;;;;;3.38;0.80;;;;;;;-142.75;100.00;77387.28;5019030;28;20316;-67
2023/01/02 09:08:31;;;;;;;3.72;0.80;;;;;;;-142.75;100.00;77397.13;5017662;28;20030;-67
2023/01/02 09:10:56;;;;;;;7.65;0.93;;;;;;;-142.75;100.00;77406.97;5017411;28;20040;-67
2023/01/02 09:13:21;;;;;;;2.85;0.77;;;;;;;-142.75;100.00;77416.81;5019253;28;20022;-67
2023/01/02 09:15:47;;;;;;;1.33;0.40;;;;;;;-142.75;100.00;77408.94;5022830;28;20017;-67
2023/01/02 09:18:12;;;;;;;4.70;0.52;;;;;;;-142.75;100.00;77420.75;5021954;28;20052;-67
2023/01/02 09:20:40;;;;;;;5.32;1.02;;;;;;;-142.75;100.00;77416.81;5022583;28;20387;-67
2023/01/02 09:23:06;;;;;;;5.88;0.50;;;;;;;-142.75;100.00;77412.88;5019903;28;20061;-67
2023/01/02 09:25:31;;;;;;;5.10;0.65;;;;;;;-142.75;100.00;77440.44;5020313;28;20048;-68
2023/01/02 09:27:56;;;;;;;3.17;0.60;;;;;;;-142.75;100.00;77440.44;5022250;28;20558;-67
2023/01/02 09:30:22;;;;;;;3.40;0.70;;;;;;;-142.75;100.00;77444.38;5013287;28;20034;-68
2023/01/02 09:32:49;;;;;;;1.85;0.40;;;;;;;-142.75;100.00;77428.63;5018662;28;20029;-68
2023/01/02 09:35:14;;;;;;;5.53;0.85;;;;;;;-142.75;100.00;77434.53;5022226;28;20780;-68
2023/01/02 09:37:40;;;;;;;3.75;0.50;;;;;;;-142.75;100.00;77436.50;4980061;28;20033;-67
2023/01/02 09:40:06;;;;;;;2.20;0.32;;;;;;;-142.75;100.00;77430.59;4951920;28;20188;-67
2023/01/02 09:42:31;;;;;;;2.88;0.60;;;;;;;-142.75;100.00;77444.38;4958315;28;20337;-67
2023/01/02 09:45:01;;;;;;;4.05;0.60;;;;;;;-142.75;100.00;77428.63;4961571;28;20152;-67
2023/01/02 09:47:30;;;;;;;1.30;0.50;;;;;;;-142.75;100.00;77418.78;4945518;28;20048;-67
2023/01/02 09:50:03;;;;;;;1.60;0.40;;;;;;;-142.75;100.00;77406.97;4986680;28;20060;-67
2023/01/02 09:52:32;;;;;;;5.45;0.63;;;;;;;-142.75;100.00;77414.84;5014923;28;20032;-67
2023/01/02 09:54:59;;;;;;;2.20;0.57;;;;;;;-142.75;100.00;77418.78;5011444;28;20551;-67
2023/01/02 09:57:24;;;;;;;;;;;;;;;-142.75;100.00;77428.63;4994741;28;20117;-67
2023/01/02 10:00:25;;;;;;;4.30;0.40;;;;;;;-142.75;100.00;77422.72;5012085;28;19913;-67
2023/01/02 10:02:56;;;;;;;4.95;0.70;;;;;;;-142.75;100.00;77418.78;4907824;29;20032;-68
2023/01/02 10:05:30;;;;;;;1.65;0.63;;;;;;;-142.75;100.00;77428.63;4996841;28;20033;-67
2023/01/02 10:08:14;;;;;;;3.92;1.05;;;;;;;-142.75;100.00;77420.75;4990966;28;20053;-67
2023/01/02 10:10:43;;;;;;;7.57;0.60;;;;;;;-142.75;100.00;77432.56;5019486;28;20524;-66
2023/01/02 10:13:20;;;;;;;8.35;1.10;;;;;;;-142.75;100.00;77416.81;5008009;28;20207;-67
2023/01/02 10:15:52;;;;;;;3.33;0.40;;;;;;;-142.75;100.00;77412.88;5001822;28;20021;-66
2023/01/02 10:18:40;;;;;;;2.70;0.57;;;;;;;-142.75;100.00;77387.28;5019565;28;20032;-66
2023/01/02 10:21:12;;;;;;;5.18;0.80;;;;;;;-142.75;100.00;77361.69;5015631;28;20029;-66
2023/01/02 10:23:48;;;;;;;3.83;0.55;;;;;;;-142.75;100.00;77373.50;5019668;28;20033;-67
2023/01/02 10:26:19;;;;;;;0.67;0.23;;;;;;;-142.75;100.00;77353.81;5021163;28;20523;-67
2023/01/02 10:29:11;;;;;;;7.57;0.93;;;;;;;-142.75;100.00;77357.75;5019150;28;20284;-66
2023/01/02 10:31:49;;;;;;;4.93;0.80;;;;;;;-142.75;100.00;77334.13;5013945;28;20705;-66
2023/01/02 10:34:20;;;;;;;4.20;0.63;;;;;;;-142.75;100.00;77314.44;5019490;28;20025;-68
2023/01/02 10:36:46;;;;;;;4.63;0.60;;;;;;;-142.75;100.00;77326.25;5013762;28;20026;-67
2023/01/02 10:39:21;;;;;;;4.07;0.68;;;;;;;-142.75;100.00;77338.06;5013621;28;20033;-66
2023/01/02 10:41:49;;;;;;;3.53;0.50;;;;;;;-142.75;100.00;77347.91;5010982;28;20064;-67
2023/01/02 10:44:20;;;;;;;4.03;0.77;;;;;;;-142.75;100.00;77357.75;5019248;28;20030;-66
2023/01/02 10:46:46;;;;;;;4.15;0.70;;;;;;;-142.75;100.00;77336.09;5016081;28;20033;-66
2023/01/02 10:49:11;;;;;;;5.03;0.60;;;;;;;-142.75;100.00;77328.22;5009107;28;20040;-66
2023/01/02 10:51:42;;;;;;;7.53;1.10;;;;;;;-142.75;100.00;77302.63;5012201;28;20037;-66
2023/01/02 10:54:08;;;;;;;6.90;1.00;;;;;;;-142.75;100.00;77223.88;5014203;28;20426;-66
2023/01/02 10:56:38;;;;;;;2.88;0.75;;;;;;;-142.75;100.00;77174.66;5019946;28;20562;-66
2023/01/02 10:59:18;;;;;;;3.75;0.68;;;;;;;-142.75;100.00;77164.81;5012531;28;20102;-66
2023/01/02 11:02:23;;;;;;;4.78;0.80;;;;;;;-142.75;100.00;77188.44;5011518;28;20026;-66
2023/01/02 11:04:50;;;;;;;4.03;0.80;;;;;;;-142.75;100.00;77212.06;5009711;28;20335;-68
2023/01/02 11:07:23;;;;;;;3.97;0.68;;;;;;;-142.75;100.00;77247.50;5008489;28;20512;-69
2023/01/02 11:09:54;;;;;;;7.38;1.00;;;;;;;-142.75;100.00;77255.38;5018332;28;20048;-69
2023/01/02 11:12:20;;;;;;;4.43;0.60;;;;;;;-142.75;100.00;77275.06;5020648;28;20025;-69
2023/01/02 11:14:45;;;;;;;3.40;0.70;;;;;;;-142.75;100.00;77273.09;5021230;28;20029;-69
2023/01/02 11:17:21;;;;;;;6.53;0.80;;;;;;;-142.75;100.00;77302.63;5019751;28;20033;-69
2023/01/02 11:19:52;;;;;;;8.95;0.90;;;;;;;-142.75;100.00;77322.31;5021046;28;20029;-69
2023/01/02 11:22:21;;;;;;;4.07;0.82;;;;;;;-142.75;100.00;77334.13;5019913;28;20136;-69